Time;durP1;ratioP1;P1;durP2;ratioP2;P2;SDS_P1;SDS_P2;PMS_P1;PMS_P2;Temp;Humidity;BMP_temperature;BMP_pressure;BME280_temperature;BME280_humidity;BME280_pressure;Samples;Min_cycle;Max_cycle;Signal;HPM_P1;HPM_P2
2021/09/30 00:01:41;;;;;;;0.63;0.25;;;;;;;11.06;61.48;100772.47;10440607;28;20069;-79
2021/09/30 00:06:42;;;;;;;1.38;0.40;;;;;;;11.00;61.69;100769.13;10438305;28;20076;-79
2021/09/30 00:11:48;;;;;;;1.33;0.45;;;;;;;11.23;60.61;100763.34;10439222;28;20049;-78
2021/09/30 00:32:44;;;;;;;0.80;0.35;;;;;;;10.63;64.12;100774.31;10416112;28;20053;-80
2021/09/30 00:48:45;;;;;;;1.23;0.40;;;;;;;10.76;63.79;100788.94;10430555;28;20056;-81
2021/09/30 00:54:20;;;;;;;3.40;0.50;;;;;;;10.76;63.66;100802.09;10408970;28;20045;-81
2021/09/30 02:18:08;;;;;;;1.92;0.50;;;;;;;10.53;62.21;100836.69;10406468;28;20478;-80
2021/09/30 02:21:12;;;;;;;1.75;0.50;;;;;;;10.41;62.64;100864.06;10443888;28;20045;-79
2021/09/30 02:26:49;;;;;;;1.33;0.40;;;;;;;10.41;62.18;100861.44;10427715;28;20041;-78
2021/09/30 02:58:50;;;;;;;1.35;0.55;;;;;;;10.37;61.86;100888.69;10413792;28;20579;-78
2021/09/30 03:03:54;;;;;;;2.45;0.60;;;;;;;10.26;62.31;100904.59;10415160;28;20501;-79
2021/09/30 03:08:59;;;;;;;0.68;0.40;;;;;;;10.20;62.62;100906.44;10431033;28;20037;-80
2021/09/30 03:14:02;;;;;;;2.25;0.40;;;;;;;10.23;62.50;100907.28;10392901;28;20055;-81
2021/09/30 03:19:17;;;;;;;0.90;0.55;;;;;;;10.15;63.12;100916.19;10408589;28;20063;-81
2021/09/30 03:24:20;;;;;;;1.90;0.50;;;;;;;10.17;62.82;100922.25;10408507;28;20045;-82
2021/09/30 03:29:22;;;;;;;0.85;0.50;;;;;;;10.16;62.91;100925.78;10408481;28;20052;-79
2021/09/30 03:34:26;;;;;;;2.05;0.70;;;;;;;10.04;63.20;100926.81;10393936;28;20491;-80
2021/09/30 03:39:28;;;;;;;1.25;0.47;;;;;;;9.89;64.51;100933.19;10410396;28;20057;-81
2021/09/30 03:44:32;;;;;;;2.33;0.60;;;;;;;9.98;64.16;100935.69;10412305;28;20518;-80
2021/09/30 03:49:35;;;;;;;1.80;0.85;;;;;;;9.88;64.31;100938.47;10434508;28;20072;-80
2021/09/30 03:55:03;;;;;;;1.67;0.50;;;;;;;9.93;63.84;100937.50;10403614;28;20133;-81
2021/09/30 04:00:06;;;;;;;2.20;0.70;;;;;;;9.87;64.11;100937.59;10420356;28;20030;-80
2021/09/30 04:05:18;;;;;;;2.25;0.65;;;;;;;9.82;64.46;100932.41;10441039;28;20049;-79
2021/09/30 04:10:20;;;;;;;2.58;0.60;;;;;;;9.78;64.70;100937.72;10399264;28;20484;-79
2021/09/30 04:15:22;;;;;;;1.92;0.60;;;;;;;9.76;64.80;100947.38;10412673;28;20561;-79
2021/09/30 04:20:23;;;;;;;1.17;0.60;;;;;;;9.73;64.78;100950.03;10410440;28;20041;-81
2021/09/30 04:25:35;;;;;;;1.85;0.52;;;;;;;9.62;65.21;100951.97;10407977;28;20049;-81
2021/09/30 04:30:37;;;;;;;2.30;0.70;;;;;;;9.65;65.12;100947.53;10391514;28;20057;-81
2021/09/30 04:35:50;;;;;;;1.65;0.82;;;;;;;9.56;65.42;100953.78;10409657;28;20045;-81
2021/09/30 04:40:53;;;;;;;1.00;0.50;;;;;;;9.64;65.08;100952.78;10427187;28;20055;-81
2021/09/30 04:45:54;;;;;;;2.20;0.60;;;;;;;9.53;65.56;100963.44;10418705;28;20064;-80
2021/09/30 04:50:56;;;;;;;1.23;0.63;;;;;;;9.50;65.66;100971.34;10418192;28;20568;-80
2021/09/30 04:55:59;;;;;;;2.88;0.70;;;;;;;9.55;65.49;100975.66;10428555;28;20038;-81
2021/09/30 05:01:01;;;;;;;2.20;0.60;;;;;;;9.43;66.26;100975.81;10434882;28;20502;-79
2021/09/30 05:06:03;;;;;;;2.38;0.80;;;;;;;9.43;66.13;100981.06;10433839;28;20073;-79
2021/09/30 05:11:06;;;;;;;1.75;0.73;;;;;;;9.51;65.89;100978.31;10414908;28;20052;-80
2021/09/30 05:16:12;;;;;;;3.10;1.00;;;;;;;9.52;65.58;100975.69;10431448;28;20056;-79
2021/09/30 05:21:32;;;;;;;5.50;0.85;;;;;;;9.37;66.27;100981.13;10451386;28;20148;-79
2021/09/30 05:26:34;;;;;;;3.40;0.82;;;;;;;9.52;65.51;100986.19;10420893;28;20376;-80
2021/09/30 05:31:37;;;;;;;2.72;0.70;;;;;;;9.55;65.40;100980.03;10406581;28;20411;-80
2021/09/30 05:37:00;;;;;;;2.70;0.70;;;;;;;9.56;65.33;100984.38;10415094;28;20499;-80
2021/09/30 05:42:01;;;;;;;1.48;0.60;;;;;;;9.65;65.10;100989.53;10416933;28;20041;-80
2021/09/30 05:47:03;;;;;;;0.95;0.68;;;;;;;9.67;64.73;100987.75;10404653;28;20046;-79
2021/09/30 05:52:06;;;;;;;2.10;0.63;;;;;;;9.68;65.06;100989.50;10425758;28;20053;-80
2021/09/30 05:57:24;;;;;;;2.20;0.70;;;;;;;9.95;64.34;101005.75;10425097;28;20076;-80
2021/09/30 06:13:11;;;;;;;4.47;1.15;;;;;;;10.11;64.17;101007.31;10417282;28;20075;-82
2021/09/30 06:18:12;;;;;;;2.28;0.80;;;;;;;10.26;64.33;101016.75;10403109;28;20053;-81
2021/09/30 06:23:21;;;;;;;1.50;0.70;;;;;;;10.40;63.47;101025.28;10421499;28;20072;-81
2021/09/30 06:28:22;;;;;;;1.95;0.70;;;;;;;10.48;62.85;101027.78;10417593;28;20125;-79
2021/09/30 06:33:30;;;;;;;2.53;1.08;;;;;;;10.59;62.42;101037.25;10400799;28;20064;-83
2021/09/30 06:38:51;;;;;;;2.10;0.70;;;;;;;10.65;62.23;101044.19;10411799;28;20550;-81
2021/09/30 06:43:54;;;;;;;2.70;1.10;;;;;;;10.85;61.79;101035.97;10415981;28;20163;-83
2021/09/30 06:49:38;;;;;;;2.33;0.70;;;;;;;10.82;62.14;101038.66;10437392;28;20053;-82
2021/09/30 06:55:09;;;;;;;3.28;1.00;;;;;;;10.98;61.30;101050.66;10404758;28;20046;-80
2021/09/30 07:00:41;;;;;;;0.80;0.50;;;;;;;11.05;61.49;101062.78;10424130;28;20056;-83
2021/09/30 07:06:15;;;;;;;2.63;0.63;;;;;;;11.32;60.03;101066.69;10437790;28;20048;-80
2021/09/30 07:11:17;;;;;;;1.30;0.52;;;;;;;11.33;60.48;101073.72;10405299;28;20060;-80
2021/09/30 07:16:18;;;;;;;3.50;0.60;;;;;;;11.45;59.60;101067.34;10417499;28;20053;-81
2021/09/30 07:21:20;;;;;;;3.08;0.60;;;;;;;11.51;59.61;101067.25;10433429;28;20080;-82
2021/09/30 07:26:22;;;;;;;2.50;0.70;;;;;;;11.59;58.84;101072.34;10418789;28;20049;-81
2021/09/30 07:31:23;;;;;;;2.92;0.82;;;;;;;11.73;58.92;101077.31;10416707;28;20124;-80
2021/09/30 07:36:25;;;;;;;1.65;0.60;;;;;;;11.92;58.74;101077.88;10441301;28;20041;-80
2021/09/30 07:41:27;;;;;;;2.60;0.90;;;;;;;11.95;58.19;101075.16;10412009;28;20045;-82
2021/09/30 07:46:28;;;;;;;2.08;0.88;;;;;;;11.96;59.38;101075.16;10428254;28;20071;-81
2021/09/30 07:51:30;;;;;;;2.38;0.90;;;;;;;12.03;58.70;101074.09;10422497;28;20073;-83
2021/09/30 07:56:32;;;;;;;2.38;0.63;;;;;;;12.06;58.21;101084.59;10411472;28;20049;-81
2021/09/30 08:01:37;;;;;;;1.80;0.93;;;;;;;12.17;58.94;101091.38;10426831;28;20033;-81
2021/09/30 08:06:40;;;;;;;4.20;0.82;;;;;;;12.39;58.81;101095.28;10429844;28;20045;-80
2021/09/30 08:11:41;;;;;;;2.63;1.02;;;;;;;12.30;57.89;101099.00;10433301;28;20046;-81
2021/09/30 08:16:43;;;;;;;3.55;0.63;;;;;;;12.32;57.87;101089.28;10454159;28;20071;-80
2021/09/30 08:21:44;;;;;;;1.55;0.70;;;;;;;12.36;58.21;101103.28;10452282;28;20049;-81
2021/09/30 08:26:47;;;;;;;4.05;0.88;;;;;;;12.50;57.23;101095.06;10420043;28;20045;-81
2021/09/30 08:31:48;;;;;;;2.05;0.90;;;;;;;12.69;58.04;101096.34;10415350;28;20049;-80
2021/09/30 08:36:50;;;;;;;1.95;0.73;;;;;;;12.65;58.37;101097.34;10393762;28;20041;-80
2021/09/30 08:41:53;;;;;;;3.63;0.88;;;;;;;12.95;57.32;101092.22;10416633;28;20033;-80
2021/09/30 08:46:54;;;;;;;2.95;0.70;;;;;;;12.94;56.88;101119.53;10401554;28;20046;-81
2021/09/30 08:51:56;;;;;;;3.13;0.82;;;;;;;13.06;57.50;101109.56;10406828;28;20046;-80
2021/09/30 08:56:58;;;;;;;5.00;0.80;;;;;;;13.21;56.13;101125.91;10414002;28;20069;-80
2021/09/30 09:02:07;;;;;;;1.77;0.63;;;;;;;13.50;56.40;101119.88;10422636;28;20367;-81
2021/09/30 09:07:30;;;;;;;3.90;0.82;;;;;;;13.63;56.82;101126.56;10421872;28;20045;-81
2021/09/30 09:12:32;;;;;;;2.17;0.70;;;;;;;13.71;54.80;101126.38;10413961;28;20042;-80
2021/09/30 09:17:34;;;;;;;2.13;0.70;;;;;;;13.58;55.30;101124.06;10394240;28;20045;-79
2021/09/30 09:22:37;;;;;;;3.42;0.85;;;;;;;14.02;54.76;101129.88;10395380;28;20046;-78
2021/09/30 09:27:53;;;;;;;2.42;1.00;;;;;;;14.43;53.36;101116.34;10386695;28;20062;-80
2021/09/30 09:33:07;;;;;;;2.45;0.70;;;;;;;14.50;53.60;101124.09;10382502;28;20453;-79
2021/09/30 09:38:11;;;;;;;1.77;0.52;;;;;;;14.54;52.97;101125.75;10380874;28;20069;-80
2021/09/30 09:43:34;;;;;;;1.83;0.63;;;;;;;14.80;51.34;101127.56;10396196;28;20057;-80
2021/09/30 09:48:37;;;;;;;1.58;0.50;;;;;;;14.92;51.34;101123.69;10377020;28;20109;-79
2021/09/30 09:53:39;;;;;;;3.63;0.80;;;;;;;14.90;50.97;101133.44;10390035;28;20042;-80
2021/09/30 09:59:02;;;;;;;2.25;0.65;;;;;;;15.09;50.00;101136.34;10391230;28;20050;-81
2021/09/30 10:04:04;;;;;;;2.75;0.90;;;;;;;14.90;50.63;101133.44;10373596;28;20050;-79
2021/09/30 10:09:09;;;;;;;1.60;0.50;;;;;;;14.69;51.73;101131.47;10409510;28;20049;-79
2021/09/30 10:14:12;;;;;;;2.70;0.57;;;;;;;15.22;50.21;101137.66;10409977;28;20068;-79
2021/09/30 10:19:13;;;;;;;2.28;0.73;;;;;;;15.23;49.44;101134.13;10390769;28;20053;-81
2021/09/30 10:24:18;;;;;;;2.65;0.52;;;;;;;15.57;47.88;101136.47;10392971;28;20052;-79
2021/09/30 10:29:46;;;;;;;1.50;0.40;;;;;;;15.73;48.06;101126.25;10391507;28;20050;-79
2021/09/30 10:34:57;;;;;;;2.28;0.70;;;;;;;16.13;47.17;101120.34;10372806;28;20037;-79
2021/09/30 10:40:17;;;;;;;1.27;0.77;;;;;;;16.51;46.94;101125.09;10392126;28;20426;-80
2021/09/30 10:45:19;;;;;;;1.88;0.40;;;;;;;16.57;45.05;101131.03;10391184;28;20041;-80
2021/09/30 10:50:48;;;;;;;2.67;0.40;;;;;;;16.29;45.27;101133.91;10389331;28;20048;-80
2021/09/30 10:55:49;;;;;;;3.67;0.50;;;;;;;16.13;45.66;101120.34;10371636;28;20471;-80
2021/09/30 11:00:55;;;;;;;3.72;0.85;;;;;;;15.75;47.25;101120.88;10389031;28;20046;-80
2021/09/30 11:06:06;;;;;;;1.90;0.50;;;;;;;15.61;48.32;101108.09;10389610;28;20125;-80
2021/09/30 11:11:09;;;;;;;1.27;0.50;;;;;;;15.03;50.46;101120.66;10389531;28;20045;-80
2021/09/30 11:16:33;;;;;;;2.28;0.55;;;;;;;14.81;50.60;101112.56;10394182;28;20056;-79
2021/09/30 11:21:35;;;;;;;1.38;0.40;;;;;;;14.64;51.94;101116.59;10391527;28;20415;-79
2021/09/30 11:26:51;;;;;;;1.30;0.60;;;;;;;14.74;52.04;101113.66;10389572;28;20046;-79
2021/09/30 11:31:58;;;;;;;1.92;0.50;;;;;;;14.67;50.31;101122.72;10390512;28;20045;-79
2021/09/30 11:37:17;;;;;;;1.92;0.60;;;;;;;14.68;49.94;101117.38;10371762;28;20116;-79
2021/09/30 11:42:22;;;;;;;2.60;0.60;;;;;;;14.95;49.20;101110.31;10387091;28;20055;-79
2021/09/30 11:47:24;;;;;;;1.40;0.40;;;;;;;15.51;49.50;101106.69;10388037;28;20090;-79
2021/09/30 11:52:25;;;;;;;2.65;0.60;;;;;;;15.83;48.56;101102.91;10388278;28;20045;-81
2021/09/30 11:57:27;;;;;;;1.90;0.50;;;;;;;16.09;48.94;101097.50;10391717;28;20045;-80
2021/09/30 12:02:28;;;;;;;1.00;0.50;;;;;;;16.79;46.96;101096.56;10389375;28;20081;-79
2021/09/30 12:07:30;;;;;;;2.17;0.57;;;;;;;16.56;48.33;101104.56;10391939;28;20431;-79
2021/09/30 12:12:35;;;;;;;2.42;0.50;;;;;;;15.96;48.00;101112.16;10375861;28;20507;-79
2021/09/30 12:17:38;;;;;;;2.20;0.60;;;;;;;15.53;47.54;101099.53;10392566;28;20056;-81
2021/09/30 12:22:49;;;;;;;3.72;1.40;;;;;;;15.31;49.46;101097.63;10372049;28;20380;-79
2021/09/30 12:27:54;;;;;;;1.17;0.50;;;;;;;15.37;49.36;101083.31;10374901;28;20042;-80
2021/09/30 12:33:03;;;;;;;2.60;0.60;;;;;;;15.49;47.54;101092.59;10396765;28;20073;-80
2021/09/30 12:38:11;;;;;;;2.03;0.70;;;;;;;15.63;47.11;101080.63;10382371;28;20097;-83
2021/09/30 12:43:16;;;;;;;1.35;0.60;;;;;;;15.70;46.65;101081.28;10376036;28;20053;-81
2021/09/30 12:48:22;;;;;;;2.40;0.52;;;;;;;15.61;44.89;101086.88;10398103;28;20053;-79
2021/09/30 12:53:24;;;;;;;0.95;0.32;;;;;;;15.58;44.69;101077.28;10387024;28;20069;-81
2021/09/30 12:58:37;;;;;;;1.73;0.52;;;;;;;15.58;45.18;101077.28;10396505;28;20050;-82
2021/09/30 13:03:40;;;;;;;3.92;0.60;;;;;;;15.63;45.06;101077.09;10426465;28;20037;-81
2021/09/30 13:08:43;;;;;;;1.60;0.50;;;;;;;15.67;45.35;101077.88;10413870;28;20097;-81
2021/09/30 13:13:45;;;;;;;2.20;0.50;;;;;;;15.57;44.65;101072.00;10413938;28;20056;-82
2021/09/30 13:18:48;;;;;;;0.95;0.50;;;;;;;15.87;44.46;101070.06;10413830;28;20117;-81
2021/09/30 13:23:50;;;;;;;1.92;0.52;;;;;;;16.04;45.32;101074.75;10428859;28;20041;-82
2021/09/30 13:28:51;;;;;;;1.95;0.43;;;;;;;16.09;43.58;101064.81;10429466;28;20056;-79
2021/09/30 13:33:53;;;;;;;1.85;0.50;;;;;;;15.59;47.21;101062.22;10428930;28;20412;-77
2021/09/30 13:38:54;;;;;;;2.58;0.57;;;;;;;15.82;44.47;101053.47;10405235;28;20057;-78
2021/09/30 13:43:56;;;;;;;1.08;0.50;;;;;;;15.66;44.71;101057.59;10420379;28;20049;-78
2021/09/30 13:48:57;;;;;;;2.05;0.52;;;;;;;15.51;46.61;101059.84;10419995;28;20111;-79
2021/09/30 13:53:59;;;;;;;1.92;0.47;;;;;;;15.68;43.89;101056.63;10404207;28;20099;-80
2021/09/30 13:59:01;;;;;;;1.90;0.57;;;;;;;15.66;45.42;101054.94;10396775;28;20050;-79
2021/09/30 14:04:22;;;;;;;1.02;0.30;;;;;;;15.26;43.54;101053.69;10388381;28;20046;-79
2021/09/30 14:09:25;;;;;;;2.33;0.65;;;;;;;15.26;43.60;101051.88;10369600;28;20050;-81
2021/09/30 14:14:27;;;;;;;2.08;0.55;;;;;;;15.29;45.13;101053.59;10394825;28;20042;-80
2021/09/30 14:19:29;;;;;;;2.08;0.60;;;;;;;15.48;44.45;101045.84;10397325;28;20053;-80
2021/09/30 14:24:31;;;;;;;2.35;0.50;;;;;;;15.44;44.47;101047.72;10401648;28;20050;-80
2021/09/30 14:29:33;;;;;;;1.85;0.50;;;;;;;15.53;45.13;101041.22;10407436;28;20080;-80
2021/09/30 14:34:34;;;;;;;0.82;0.38;;;;;;;15.41;46.56;101042.56;10396902;28;20499;-80
2021/09/30 14:39:36;;;;;;;1.85;0.40;;;;;;;15.63;45.41;101048.81;10406383;28;20057;-80
2021/09/30 14:44:38;;;;;;;1.08;0.30;;;;;;;15.58;45.38;101044.56;10400719;28;20092;-80
2021/09/30 14:49:40;;;;;;;1.80;0.60;;;;;;;15.51;45.20;101043.09;10392050;28;20096;-80
2021/09/30 14:54:42;;;;;;;1.23;0.52;;;;;;;15.41;44.66;101041.69;10372681;28;20088;-79
2021/09/30 14:59:44;;;;;;;2.28;0.35;;;;;;;15.38;43.72;101037.34;10374127;28;20538;-79
2021/09/30 15:04:45;;;;;;;2.53;0.40;;;;;;;15.37;43.98;101030.34;10381246;28;20042;-79
2021/09/30 15:09:47;;;;;;;1.50;0.45;;;;;;;15.29;45.77;101035.03;10386019;28;20495;-79
2021/09/30 15:14:49;;;;;;;1.48;0.50;;;;;;;15.03;46.55;101047.41;10392151;28;20050;-79
2021/09/30 15:20:13;;;;;;;1.50;0.50;;;;;;;14.95;47.23;101045.91;10394484;28;20073;-79
2021/09/30 15:25:15;;;;;;;2.65;0.60;;;;;;;14.84;49.07;101049.81;10413407;28;20046;-79
2021/09/30 15:30:16;;;;;;;2.55;0.50;;;;;;;14.61;48.34;101053.22;10382972;28;20097;-80
2021/09/30 15:35:18;;;;;;;1.23;0.40;;;;;;;14.51;49.65;101053.53;10414838;28;20103;-79
2021/09/30 15:40:20;;;;;;;1.67;0.50;;;;;;;14.71;49.21;101055.56;10409462;28;20076;-79
2021/09/30 15:45:22;;;;;;;5.70;0.47;;;;;;;14.52;49.90;101050.84;10390271;28;20046;-80
2021/09/30 15:50:24;;;;;;;0.82;0.43;;;;;;;14.53;50.25;101051.72;10371899;28;20038;-78
2021/09/30 15:55:25;;;;;;;2.35;0.60;;;;;;;13.88;53.44;101051.00;10395292;28;20040;-78
2021/09/30 16:00:27;;;;;;;1.33;0.77;;;;;;;13.58;55.13;101059.78;10420266;28;20049;-79
2021/09/30 16:05:29;;;;;;;1.05;0.55;;;;;;;13.34;55.10;101051.63;10391879;28;20049;-78
2021/09/30 16:10:31;;;;;;;1.17;0.60;;;;;;;13.24;55.79;101047.53;10373286;28;20491;-78
2021/09/30 16:15:33;;;;;;;4.05;0.60;;;;;;;13.07;56.96;101058.47;10376536;28;20073;-77
2021/09/30 16:20:35;;;;;;;2.35;0.70;;;;;;;12.94;57.60;101062.34;10391802;28;20503;-79
2021/09/30 16:25:37;;;;;;;2.22;1.30;;;;;;;12.74;58.85;101059.31;10372806;28;20502;-81
2021/09/30 16:30:40;;;;;;;3.25;2.85;;;;;;;12.75;59.77;101063.69;10391091;28;20081;-80
2021/09/30 16:35:41;;;;;;;4.68;3.67;;;;;;;12.71;61.01;101062.06;10380338;28;20077;-78
2021/09/30 16:40:43;;;;;;;8.60;7.95;;;;;;;12.61;61.39;101064.88;10401606;28;20557;-79
2021/09/30 16:45:45;;;;;;;10.98;10.15;;;;;;;12.80;62.27;101065.31;10409970;28;20052;-79
2021/09/30 16:50:49;;;;;;;8.55;7.85;;;;;;;12.59;63.11;101077.25;10390522;28;20049;-79
2021/09/30 16:55:53;;;;;;;4.93;4.03;;;;;;;12.40;63.03;101073.31;10393698;28;20046;-79
2021/09/30 17:00:55;;;;;;;4.35;2.78;;;;;;;12.42;63.29;101083.81;10388604;28;20046;-78
2021/09/30 17:05:57;;;;;;;3.72;3.22;;;;;;;12.24;63.53;101085.97;10403978;28;20057;-78
2021/09/30 17:10:59;;;;;;;5.00;3.15;;;;;;;12.06;65.08;101092.50;10378449;28;20042;-78
2021/09/30 17:16:00;;;;;;;4.68;3.15;;;;;;;11.93;65.19;101096.28;10394578;28;20042;-78
2021/09/30 17:21:03;;;;;;;3.95;2.78;;;;;;;11.49;66.39;101094.47;10405245;28;20065;-80
2021/09/30 17:26:04;;;;;;;4.00;2.92;;;;;;;11.38;66.23;101092.06;10378243;28;20112;-80
2021/09/30 17:31:06;;;;;;;4.20;2.70;;;;;;;11.27;67.28;101094.00;10402424;28;20060;-79
2021/09/30 17:36:08;;;;;;;5.47;2.97;;;;;;;11.23;67.10;101092.31;10392233;28;20073;-79
2021/09/30 17:41:09;;;;;;;7.35;2.95;;;;;;;11.04;67.30;101097.91;10378676;28;20050;-79
2021/09/30 17:46:11;;;;;;;5.65;2.58;;;;;;;10.84;67.27;101099.97;10413143;28;20073;-78
2021/09/30 17:51:15;;;;;;;4.72;2.15;;;;;;;10.86;67.32;101095.56;10389954;28;20582;-79
2021/09/30 17:56:17;;;;;;;3.42;2.05;;;;;;;10.69;68.12;101101.09;10397994;28;20046;-79
2021/09/30 18:01:18;;;;;;;2.70;2.13;;;;;;;10.69;68.17;101098.47;10399372;28;20076;-78
2021/09/30 18:06:20;;;;;;;3.83;2.40;;;;;;;10.50;68.80;101105.75;10399483;28;20038;-78
2021/09/30 18:11:22;;;;;;;4.03;1.90;;;;;;;10.49;67.50;101108.38;10382044;28;20517;-78
2021/09/30 18:16:23;;;;;;;4.00;2.63;;;;;;;10.71;66.83;101114.19;10379925;28;20046;-79
2021/09/30 18:21:26;;;;;;;5.38;2.40;;;;;;;10.56;66.89;101110.06;10362619;28;20466;-79
2021/09/30 18:26:27;;;;;;;5.65;3.25;;;;;;;10.53;66.50;101110.09;10377226;28;20040;-79
2021/09/30 18:31:29;;;;;;;5.85;2.65;;;;;;;10.57;66.63;101106.53;10396478;28;20050;-80
2021/09/30 18:36:31;;;;;;;4.40;3.75;;;;;;;10.61;65.52;101108.22;10377389;28;20104;-80
2021/09/30 18:41:33;;;;;;;7.72;4.15;;;;;;;10.57;65.78;101110.03;10376497;28;20462;-80
2021/09/30 18:46:35;;;;;;;5.38;3.63;;;;;;;10.39;65.38;101107.66;10395225;28;20475;-79
2021/09/30 18:51:37;;;;;;;4.32;3.35;;;;;;;10.08;66.89;101117.66;10401824;28;20116;-80
2021/09/30 18:56:38;;;;;;;4.60;2.72;;;;;;;9.99;66.79;101112.53;10378272;28;20128;-79
2021/09/30 19:01:40;;;;;;;3.80;2.35;;;;;;;9.87;67.22;101121.41;10394893;28;20042;-79
2021/09/30 19:06:41;;;;;;;5.15;2.50;;;;;;;10.04;65.89;101116.81;10395214;28;20077;-79
2021/09/30 19:11:44;;;;;;;3.22;2.15;;;;;;;9.89;65.99;101119.66;10376331;28;20049;-78
2021/09/30 19:16:49;;;;;;;2.95;1.63;;;;;;;9.98;65.51;101121.31;10395781;28;20100;-79
2021/09/30 19:21:51;;;;;;;3.58;1.90;;;;;;;10.09;64.79;101115.03;10396475;28;20050;-78
2021/09/30 19:26:52;;;;;;;3.42;2.13;;;;;;;9.92;65.87;101119.63;10394639;28;20045;-79
2021/09/30 19:31:54;;;;;;;4.50;2.67;;;;;;;9.96;64.99;101110.81;10404128;28;20080;-79
2021/09/30 19:37:28;;;;;;;;;;;;;;;;;;;;;
2021/09/30 19:43:56;;;;;;;6.72;2.10;;;;;;;9.47;67.40;101119.22;10153187;29;20088;-87
2021/09/30 19:57:08;;;;;;;5.15;3.28;;;;;;;9.16;68.92;101120.38;10221776;29;20044;-85
2021/09/30 20:03:02;;;;;;;3.90;3.50;;;;;;;9.10;69.27;101129.19;10338091;28;20081;-87
2021/09/30 20:08:33;;;;;;;4.70;3.17;;;;;;;8.99;69.72;101126.66;10359681;28;20136;-87
2021/09/30 20:14:12;;;;;;;5.28;2.90;;;;;;;8.92;69.93;101124.94;10398828;28;20041;-86
2021/09/30 20:20:29;;;;;;;4.70;3.13;;;;;;;8.89;70.87;101121.47;10388497;28;20113;-87
2021/09/30 20:27:23;;;;;;;;;;;;;;;;;;;;;
2021/09/30 20:32:51;;;;;;;4.00;3.30;;;;;;;8.53;72.99;101132.19;10316870;28;20583;-85
2021/09/30 20:44:45;;;;;;;7.35;4.13;;;;;;;8.48;73.27;101123.50;10251998;23;20559;-72
2021/09/30 20:49:46;;;;;;;3.95;3.55;;;;;;;8.49;73.43;101125.22;10382653;28;20060;-72
2021/09/30 20:54:48;;;;;;;4.78;2.83;;;;;;;8.40;73.27;101121.78;10380888;28;20385;-72
2021/09/30 20:59:51;;;;;;;3.83;2.50;;;;;;;8.40;73.66;101122.66;10370249;28;20038;-74
2021/09/30 21:04:55;;;;;;;3.15;2.63;;;;;;;8.42;73.77;101120.94;10348979;28;20077;-72
2021/09/30 21:09:57;;;;;;;3.30;2.65;;;;;;;8.44;73.65;101120.91;10380795;28;20049;-72
2021/09/30 21:14:58;;;;;;;3.70;2.63;;;;;;;8.49;73.58;101125.22;10379722;28;20443;-73
2021/09/30 21:20:00;;;;;;;2.88;2.17;;;;;;;8.50;73.77;101126.09;10380152;28;20046;-72
2021/09/30 21:25:04;;;;;;;5.07;2.80;;;;;;;8.50;73.90;101129.63;10379487;28;20495;-72
2021/09/30 21:30:08;;;;;;;3.63;2.72;;;;;;;8.46;74.16;101121.78;10379838;28;20053;-71
2021/09/30 21:35:12;;;;;;;5.70;3.10;;;;;;;8.54;73.72;101126.09;10380030;28;20454;-71
2021/09/30 21:40:15;;;;;;;5.25;3.65;;;;;;;8.73;73.29;101128.59;10379393;28;20059;-72
2021/09/30 21:45:17;;;;;;;6.38;3.75;;;;;;;8.63;73.02;101125.16;10378356;28;20042;-71
2021/09/30 21:50:18;;;;;;;4.95;3.38;;;;;;;8.54;73.72;101123.47;10378002;28;20080;-72
2021/09/30 21:55:23;;;;;;;5.63;3.58;;;;;;;8.78;72.56;101122.44;10360688;28;20049;-72
2021/09/30 22:00:42;;;;;;;6.50;3.35;;;;;;;8.70;72.88;101119.00;10378236;28;20061;-71
2021/09/30 22:05:45;;;;;;;7.30;3.35;;;;;;;8.64;72.91;101108.56;10377921;28;20042;-72
2021/09/30 22:10:48;;;;;;;6.95;3.38;;;;;;;8.63;73.09;101111.16;10377715;28;20054;-72
2021/09/30 22:15:50;;;;;;;4.13;2.90;;;;;;;8.67;72.92;101121.63;10378164;28;20054;-72
2021/09/30 22:20:52;;;;;;;5.55;2.83;;;;;;;8.54;73.59;101118.25;10377043;28;20050;-72
2021/09/30 22:25:54;;;;;;;9.13;3.05;;;;;;;8.44;73.65;101113.91;10376910;28;20042;-72
2021/09/30 22:30:56;;;;;;;3.05;2.20;;;;;;;8.52;73.18;101114.75;10378474;28;20045;-72
2021/09/30 22:35:58;;;;;;;3.33;2.55;;;;;;;8.41;73.38;101108.72;10359482;28;20089;-72
2021/09/30 22:40:59;;;;;;;3.97;2.25;;;;;;;8.39;73.67;101109.59;10376807;28;20057;-72
2021/09/30 22:46:01;;;;;;;5.35;2.67;;;;;;;8.45;73.44;101112.16;10376722;28;20042;-72
2021/09/30 22:51:02;;;;;;;2.78;1.90;;;;;;;8.46;73.25;101108.69;10376355;28;20046;-72
2021/09/30 22:56:04;;;;;;;4.13;2.30;;;;;;;8.30;74.28;101110.47;10377443;28;20046;-73
2021/09/30 23:01:05;;;;;;;3.97;2.33;;;;;;;8.23;74.45;101109.63;10376513;28;20042;-72
2021/09/30 23:06:07;;;;;;;5.03;3.80;;;;;;;8.07;74.66;101100.97;10377067;28;20046;-72
2021/09/30 23:11:09;;;;;;;4.45;2.08;;;;;;;7.99;75.01;101107.13;10376454;28;20117;-72
2021/09/30 23:16:11;;;;;;;2.88;1.98;;;;;;;8.03;74.92;101103.63;10376899;28;20455;-72
2021/09/30 23:21:13;;;;;;;3.55;1.65;;;;;;;8.22;73.96;101102.66;10376233;28;20059;-72
2021/09/30 23:26:15;;;;;;;2.63;1.70;;;;;;;7.84;75.35;101106.31;10375365;28;20442;-72
2021/09/30 23:31:18;;;;;;;3.42;1.67;;;;;;;7.67;76.32;101102.88;10375889;28;20060;-72
2021/09/30 23:36:20;;;;;;;2.95;1.80;;;;;;;7.66;76.55;101100.25;10375253;28;20042;-72
2021/09/30 23:41:22;;;;;;;3.13;2.10;;;;;;;7.49;77.34;101093.31;10356221;28;20056;-72
2021/09/30 23:46:23;;;;;;;3.67;2.00;;;;;;;7.33;77.96;101100.31;10356414;28;20068;-73
2021/09/30 23:51:25;;;;;;;3.13;1.95;;;;;;;7.50;77.49;101087.22;10374201;28;20100;-71
2021/09/30 23:56:27;;;;;;;2.95;1.95;;;;;;;7.37;77.91;101087.25;10375034;28;20488;-72
